sensor_id;sensor_type;location;lat;lon;timestamp;pressure;altitude;pressure_sealevel;temperature;humidity
18850;BME280;4989;48.772;9.154;2022-07-29T00:00:46;97804.19;;;21.90;97.84
18850;BME280;4989;48.772;9.154;2022-07-29T00:05:49;97806.50;;;22.09;95.60
18850;BME280;4989;48.772;9.154;2022-07-29T00:10:51;97795.16;;;21.84;99.26
18850;BME280;4989;48.772;9.154;2022-07-29T00:15:53;97793.88;;;21.68;100.00
18850;BME280;4989;48.772;9.154;2022-07-29T00:20:56;97779.03;;;21.43;100.00
18850;BME280;4989;48.772;9.154;2022-07-29T00:25:58;97788.88;;;21.67;100.00
18850;BME280;4989;48.772;9.154;2022-07-29T00:31:01;97787.09;;;22.09;100.00
18850;BME280;4989;48.772;9.154;2022-07-29T00:36:04;97785.59;;;21.85;100.00
18850;BME280;4989;48.772;9.154;2022-07-29T00:41:06;97784.59;;;21.88;100.00
18850;BME280;4989;48.772;9.154;2022-07-29T00:46:09;97777.03;;;22.17;98.89
18850;BME280;4989;48.772;9.154;2022-07-29T00:51:12;97780.81;;;22.20;97.67
18850;BME280;4989;48.772;9.154;2022-07-29T00:56:14;97775.94;;;22.65;94.05
18850;BME280;4989;48.772;9.154;2022-07-29T01:01:17;97767.75;;;23.01;90.53
18850;BME280;4989;48.772;9.154;2022-07-29T01:06:20;97758.28;;;23.26;88.79
18850;BME280;4989;48.772;9.154;2022-07-29T01:11:23;97751.31;;;23.50;86.21
18850;BME280;4989;48.772;9.154;2022-07-29T01:16:30;97750.84;;;23.04;87.35
18850;BME280;4989;48.772;9.154;2022-07-29T01:21:56;97751.69;;;22.77;91.10
18850;BME280;4989;48.772;9.154;2022-07-29T01:32:29;97748.13;;;22.88;88.02
18850;BME280;4989;48.772;9.154;2022-07-29T01:43:03;97756.22;;;23.32;84.12
18850;BME280;4989;48.772;9.154;2022-07-29T01:48:21;97747.50;;;23.53;81.94
18850;BME280;4989;48.772;9.154;2022-07-29T01:58:52;97753.56;;;22.57;87.55
18850;BME280;4989;48.772;9.154;2022-07-29T02:03:57;97756.91;;;21.77;93.18
18850;BME280;4989;48.772;9.154;2022-07-29T02:09:01;97739.28;;;21.63;94.71
18850;BME280;4989;48.772;9.154;2022-07-29T02:14:05;97732.75;;;21.66;94.96
18850;BME280;4989;48.772;9.154;2022-07-29T02:19:10;97733.78;;;21.46;95.88
18850;BME280;4989;48.772;9.154;2022-07-29T02:24:14;97731.00;;;21.41;96.80
18850;BME280;4989;48.772;9.154;2022-07-29T02:29:21;97718.69;;;21.47;94.32
18850;BME280;4989;48.772;9.154;2022-07-29T02:34:25;97732.19;;;21.23;97.50
18850;BME280;4989;48.772;9.154;2022-07-29T02:39:29;97727.19;;;21.21;97.33
18850;BME280;4989;48.772;9.154;2022-07-29T02:44:34;97727.00;;;21.64;94.16
18850;BME280;4989;48.772;9.154;2022-07-29T02:50:02;97723.72;;;21.66;92.34
18850;BME280;4989;48.772;9.154;2022-07-29T02:55:16;97726.16;;;21.13;96.47
18850;BME280;4989;48.772;9.154;2022-07-29T03:00:22;97724.13;;;21.14;96.76
18850;BME280;4989;48.772;9.154;2022-07-29T03:05:26;97739.22;;;21.24;96.71
18850;BME280;4989;48.772;9.154;2022-07-29T03:10:29;97735.00;;;21.51;94.16
18850;BME280;4989;48.772;9.154;2022-07-29T03:15:33;97754.06;;;21.32;95.34
18850;BME280;4989;48.772;9.154;2022-07-29T03:20:38;97745.34;;;21.39;94.64
18850;BME280;4989;48.772;9.154;2022-07-29T03:25:40;97743.50;;;21.14;97.59
18850;BME280;4989;48.772;9.154;2022-07-29T03:30:43;97747.41;;;20.73;100.00
18850;BME280;4989;48.772;9.154;2022-07-29T03:35:46;97737.66;;;20.41;100.00
18850;BME280;4989;48.772;9.154;2022-07-29T03:40:51;97741.66;;;20.88;100.00
18850;BME280;4989;48.772;9.154;2022-07-29T03:45:55;97754.47;;;20.86;100.00
18850;BME280;4989;48.772;9.154;2022-07-29T03:50:59;97756.44;;;20.74;100.00
18850;BME280;4989;48.772;9.154;2022-07-29T03:56:02;97754.81;;;21.16;100.00
18850;BME280;4989;48.772;9.154;2022-07-29T04:01:05;97751.88;;;21.36;96.38
18850;BME280;4989;48.772;9.154;2022-07-29T04:06:08;97756.81;;;21.21;98.24
18850;BME280;4989;48.772;9.154;2022-07-29T04:11:11;97761.44;;;21.58;93.13
18850;BME280;4989;48.772;9.154;2022-07-29T04:16:13;97750.81;;;21.28;97.01
18850;BME280;4989;48.772;9.154;2022-07-29T04:21:16;97763.94;;;22.12;90.31
18850;BME280;4989;48.772;9.154;2022-07-29T04:26:19;97766.94;;;22.14;87.99
18850;BME280;4989;48.772;9.154;2022-07-29T04:31:21;97763.94;;;21.78;89.58
18850;BME280;4989;48.772;9.154;2022-07-29T04:36:27;97758.41;;;21.56;91.88
18850;BME280;4989;48.772;9.154;2022-07-29T04:41:31;97757.16;;;21.45;90.60
18850;BME280;4989;48.772;9.154;2022-07-29T04:46:36;97751.13;;;21.58;88.57
18850;BME280;4989;48.772;9.154;2022-07-29T04:51:38;97754.41;;;21.68;90.41
18850;BME280;4989;48.772;9.154;2022-07-29T04:56:41;97749.38;;;21.94;90.94
18850;BME280;4989;48.772;9.154;2022-07-29T05:01:44;97755.81;;;22.53;82.76
18850;BME280;4989;48.772;9.154;2022-07-29T05:06:46;97763.38;;;22.47;80.97
18850;BME280;4989;48.772;9.154;2022-07-29T05:11:49;97767.44;;;22.40;81.27
18850;BME280;4989;48.772;9.154;2022-07-29T05:16:51;97771.97;;;22.44;80.32
18850;BME280;4989;48.772;9.154;2022-07-29T05:21:55;97769.72;;;22.08;84.18
18850;BME280;4989;48.772;9.154;2022-07-29T05:26:57;97765.16;;;22.45;81.42
18850;BME280;4989;48.772;9.154;2022-07-29T05:32:00;97758.75;;;22.72;80.81
18850;BME280;4989;48.772;9.154;2022-07-29T05:37:02;97760.19;;;23.01;77.59
18850;BME280;4989;48.772;9.154;2022-07-29T05:42:09;97772.22;;;22.51;80.28
18850;BME280;4989;48.772;9.154;2022-07-29T05:47:11;97770.50;;;22.09;83.52
18850;BME280;4989;48.772;9.154;2022-07-29T05:52:14;97774.78;;;21.99;84.61
18850;BME280;4989;48.772;9.154;2022-07-29T05:57:22;97781.56;;;22.09;84.59
18850;BME280;4989;48.772;9.154;2022-07-29T06:02:24;97780.44;;;22.68;81.66
18850;BME280;4989;48.772;9.154;2022-07-29T06:07:27;97779.09;;;22.92;81.43
18850;BME280;4989;48.772;9.154;2022-07-29T06:12:29;97785.94;;;23.38;78.26
18850;BME280;4989;48.772;9.154;2022-07-29T06:17:32;97793.09;;;23.22;78.30
18850;BME280;4989;48.772;9.154;2022-07-29T06:22:34;97798.06;;;23.35;78.45
18850;BME280;4989;48.772;9.154;2022-07-29T06:27:37;97795.56;;;23.31;78.71
18850;BME280;4989;48.772;9.154;2022-07-29T06:32:40;97792.69;;;23.48;78.67
18850;BME280;4989;48.772;9.154;2022-07-29T06:37:44;97800.41;;;24.02;74.84
18850;BME280;4989;48.772;9.154;2022-07-29T06:42:50;97799.38;;;24.30;73.24
18850;BME280;4989;48.772;9.154;2022-07-29T06:47:52;97799.59;;;24.62;72.47
18850;BME280;4989;48.772;9.154;2022-07-29T06:52:55;97804.22;;;24.54;73.15
18850;BME280;4989;48.772;9.154;2022-07-29T06:57:57;97803.81;;;24.68;72.68
18850;BME280;4989;48.772;9.154;2022-07-29T07:03:00;97811.16;;;25.15;70.27
18850;BME280;4989;48.772;9.154;2022-07-29T07:08:03;97806.56;;;25.36;69.48
18850;BME280;4989;48.772;9.154;2022-07-29T07:13:06;97807.63;;;25.15;70.74
18850;BME280;4989;48.772;9.154;2022-07-29T07:18:09;97809.16;;;25.67;68.74
18850;BME280;4989;48.772;9.154;2022-07-29T07:23:12;97818.63;;;25.77;68.57
18850;BME280;4989;48.772;9.154;2022-07-29T07:28:14;97813.56;;;26.26;66.01
18850;BME280;4989;48.772;9.154;2022-07-29T07:33:17;97824.81;;;26.34;65.69
18850;BME280;4989;48.772;9.154;2022-07-29T07:38:19;97827.66;;;26.87;64.24
18850;BME280;4989;48.772;9.154;2022-07-29T07:43:22;97822.00;;;26.93;63.17
18850;BME280;4989;48.772;9.154;2022-07-29T07:48:24;97828.06;;;27.31;61.94
18850;BME280;4989;48.772;9.154;2022-07-29T07:53:27;97822.59;;;27.12;61.98
18850;BME280;4989;48.772;9.154;2022-07-29T07:58:32;97827.03;;;26.81;63.93
18850;BME280;4989;48.772;9.154;2022-07-29T08:03:34;97829.19;;;26.75;63.58
18850;BME280;4989;48.772;9.154;2022-07-29T08:08:37;97828.09;;;27.18;61.79
18850;BME280;4989;48.772;9.154;2022-07-29T08:13:39;97831.75;;;27.60;59.97
18850;BME280;4989;48.772;9.154;2022-07-29T08:18:44;97822.88;;;28.04;57.73
18850;BME280;4989;48.772;9.154;2022-07-29T08:23:46;97817.16;;;28.09;57.04
18850;BME280;4989;48.772;9.154;2022-07-29T08:29:02;97831.88;;;27.89;57.77
18850;BME280;4989;48.772;9.154;2022-07-29T08:34:05;97831.09;;;28.51;54.95
18850;BME280;4989;48.772;9.154;2022-07-29T08:39:07;97827.97;;;28.34;55.88
18850;BME280;4989;48.772;9.154;2022-07-29T08:44:10;97835.03;;;27.72;57.86
18850;BME280;4989;48.772;9.154;2022-07-29T08:49:12;97832.38;;;27.19;59.24
18850;BME280;4989;48.772;9.154;2022-07-29T08:54:17;97824.31;;;27.63;57.89
18850;BME280;4989;48.772;9.154;2022-07-29T08:59:22;97825.75;;;29.78;48.41
18850;BME280;4989;48.772;9.154;2022-07-29T09:04:29;97825.41;;;30.66;46.46
18850;BME280;4989;48.772;9.154;2022-07-29T09:09:33;97826.88;;;29.75;48.64
18850;BME280;4989;48.772;9.154;2022-07-29T09:14:36;97825.75;;;30.62;47.64
18850;BME280;4989;48.772;9.154;2022-07-29T09:19:38;97827.31;;;30.25;50.74
18850;BME280;4989;48.772;9.154;2022-07-29T09:24:47;97818.34;;;30.26;48.31
18850;BME280;4989;48.772;9.154;2022-07-29T09:30:03;97824.09;;;31.30;44.71
18850;BME280;4989;48.772;9.154;2022-07-29T09:40:23;97814.47;;;31.00;47.55
18850;BME280;4989;48.772;9.154;2022-07-29T09:45:35;97813.81;;;29.93;47.86
18850;BME280;4989;48.772;9.154;2022-07-29T09:50:43;97810.72;;;31.06;45.66
18850;BME280;4989;48.772;9.154;2022-07-29T09:55:51;97808.97;;;30.39;46.98
18850;BME280;4989;48.772;9.154;2022-07-29T10:00:55;97808.13;;;29.03;52.26
18850;BME280;4989;48.772;9.154;2022-07-29T10:06:06;97800.28;;;30.83;47.64
18850;BME280;4989;48.772;9.154;2022-07-29T10:11:19;97799.63;;;30.37;49.19
18850;BME280;4989;48.772;9.154;2022-07-29T10:16:22;97803.16;;;29.91;50.38
18850;BME280;4989;48.772;9.154;2022-07-29T10:21:26;97802.16;;;28.77;53.04
18850;BME280;4989;48.772;9.154;2022-07-29T10:26:37;97786.63;;;27.91;55.59
18850;BME280;4989;48.772;9.154;2022-07-29T10:31:58;97803.72;;;27.53;57.07
18850;BME280;4989;48.772;9.154;2022-07-29T10:37:12;97798.75;;;27.59;56.65
18850;BME280;4989;48.772;9.154;2022-07-29T10:42:24;97795.28;;;27.45;56.83
18850;BME280;4989;48.772;9.154;2022-07-29T10:47:35;97797.06;;;27.22;57.82
18850;BME280;4989;48.772;9.154;2022-07-29T11:09:18;97863.34;;;25.47;79.84
18850;BME280;4989;48.772;9.154;2022-07-29T11:14:56;97875.66;;;22.88;100.00
18850;BME280;4989;48.772;9.154;2022-07-29T11:25:41;97866.06;;;22.89;100.00
18850;BME280;4989;48.772;9.154;2022-07-29T11:30:54;97857.75;;;23.00;100.00
18850;BME280;4989;48.772;9.154;2022-07-29T11:36:11;97851.41;;;23.11;100.00
18850;BME280;4989;48.772;9.154;2022-07-29T11:46:44;97841.91;;;23.42;100.00
18850;BME280;4989;48.772;9.154;2022-07-29T11:51:57;97862.88;;;23.37;100.00
18850;BME280;4989;48.772;9.154;2022-07-29T11:57:00;97865.16;;;23.86;100.00
18850;BME280;4989;48.772;9.154;2022-07-29T12:02:03;97853.25;;;23.91;100.00
18850;BME280;4989;48.772;9.154;2022-07-29T12:07:32;97842.22;;;23.32;100.00
18850;BME280;4989;48.772;9.154;2022-07-29T12:12:37;97843.06;;;23.16;100.00
18850;BME280;4989;48.772;9.154;2022-07-29T12:17:40;97848.88;;;23.07;100.00
18850;BME280;4989;48.772;9.154;2022-07-29T12:22:44;97847.69;;;22.74;93.98
18850;BME280;4989;48.772;9.154;2022-07-29T12:27:47;97835.78;;;23.60;92.83
18850;BME280;4989;48.772;9.154;2022-07-29T12:32:50;97840.63;;;22.84;90.55
18850;BME280;4989;48.772;9.154;2022-07-29T12:37:53;97833.16;;;22.29;97.32
18850;BME280;4989;48.772;9.154;2022-07-29T12:48:10;97834.81;;;22.94;96.58
18850;BME280;4989;48.772;9.154;2022-07-29T12:53:13;97843.59;;;23.56;92.95
18850;BME280;4989;48.772;9.154;2022-07-29T13:03:56;97844.97;;;23.38;95.00
18850;BME280;4989;48.772;9.154;2022-07-29T13:14:08;97860.06;;;23.90;95.19
18850;BME280;4989;48.772;9.154;2022-07-29T13:19:12;97860.81;;;23.49;94.33
18850;BME280;4989;48.772;9.154;2022-07-29T13:24:14;97871.94;;;22.40;100.00
18850;BME280;4989;48.772;9.154;2022-07-29T13:29:21;97873.09;;;21.66;100.00
18850;BME280;4989;48.772;9.154;2022-07-29T13:34:24;97868.97;;;21.33;100.00
18850;BME280;4989;48.772;9.154;2022-07-29T13:39:26;97848.13;;;21.38;100.00
18850;BME280;4989;48.772;9.154;2022-07-29T13:44:29;97841.78;;;21.26;100.00
18850;BME280;4989;48.772;9.154;2022-07-29T13:49:31;97839.41;;;21.62;100.00
18850;BME280;4989;48.772;9.154;2022-07-29T13:54:34;97837.44;;;22.47;100.00
18850;BME280;4989;48.772;9.154;2022-07-29T13:59:43;97817.84;;;23.61;99.42
18850;BME280;4989;48.772;9.154;2022-07-29T14:04:45;97825.84;;;24.66;96.77
18850;BME280;4989;48.772;9.154;2022-07-29T14:09:48;97827.78;;;24.96;90.04
18850;BME280;4989;48.772;9.154;2022-07-29T14:14:50;97825.22;;;24.98;91.15
18850;BME280;4989;48.772;9.154;2022-07-29T14:19:53;97821.28;;;24.69;89.05
18850;BME280;4989;48.772;9.154;2022-07-29T14:24:55;97814.47;;;24.40;88.54
18850;BME280;4989;48.772;9.154;2022-07-29T14:29:58;97819.66;;;24.98;86.36
18850;BME280;4989;48.772;9.154;2022-07-29T14:35:00;97828.91;;;25.31;80.30
18850;BME280;4989;48.772;9.154;2022-07-29T14:40:04;97830.69;;;25.28;85.77
18850;BME280;4989;48.772;9.154;2022-07-29T14:45:08;97823.69;;;25.59;79.90
18850;BME280;4989;48.772;9.154;2022-07-29T14:50:10;97827.22;;;25.79;78.95
18850;BME280;4989;48.772;9.154;2022-07-29T14:55:13;97835.59;;;25.41;78.44
18850;BME280;4989;48.772;9.154;2022-07-29T15:00:21;97826.47;;;25.59;80.56
18850;BME280;4989;48.772;9.154;2022-07-29T15:05:24;97839.28;;;25.87;80.92
18850;BME280;4989;48.772;9.154;2022-07-29T15:10:26;97834.22;;;25.29;85.42
18850;BME280;4989;48.772;9.154;2022-07-29T15:15:30;97834.97;;;24.86;88.97
18850;BME280;4989;48.772;9.154;2022-07-29T15:20:33;97832.81;;;24.54;92.56
18850;BME280;4989;48.772;9.154;2022-07-29T15:25:36;97824.63;;;24.32;94.26
18850;BME280;4989;48.772;9.154;2022-07-29T15:30:38;97834.59;;;24.21;95.86
18850;BME280;4989;48.772;9.154;2022-07-29T15:35:44;97830.53;;;24.22;90.86
18850;BME280;4989;48.772;9.154;2022-07-29T15:40:47;97839.66;;;24.17;90.78
18850;BME280;4989;48.772;9.154;2022-07-29T15:45:49;97829.50;;;24.26;93.27
18850;BME280;4989;48.772;9.154;2022-07-29T15:51:10;97831.06;;;24.21;96.74
18850;BME280;4989;48.772;9.154;2022-07-29T15:56:13;97830.63;;;24.11;99.61
18850;BME280;4989;48.772;9.154;2022-07-29T16:01:16;97829.69;;;24.03;100.00
18850;BME280;4989;48.772;9.154;2022-07-29T16:06:19;97834.22;;;24.06;100.00
18850;BME280;4989;48.772;9.154;2022-07-29T16:11:21;97830.72;;;24.00;99.30
18850;BME280;4989;48.772;9.154;2022-07-29T16:16:24;97835.72;;;24.07;100.00
18850;BME280;4989;48.772;9.154;2022-07-29T16:21:26;97838.56;;;23.96;100.00
18850;BME280;4989;48.772;9.154;2022-07-29T16:26:29;97842.38;;;23.93;98.69
18850;BME280;4989;48.772;9.154;2022-07-29T16:31:32;97833.06;;;23.90;98.99
18850;BME280;4989;48.772;9.154;2022-07-29T16:36:34;97833.78;;;23.96;100.00
18850;BME280;4989;48.772;9.154;2022-07-29T16:41:37;97830.22;;;23.96;100.00
18850;BME280;4989;48.772;9.154;2022-07-29T16:46:42;97836.56;;;23.96;100.00
18850;BME280;4989;48.772;9.154;2022-07-29T16:51:44;97840.63;;;23.90;100.00
18850;BME280;4989;48.772;9.154;2022-07-29T16:56:48;97845.72;;;23.86;100.00
18850;BME280;4989;48.772;9.154;2022-07-29T17:01:51;97839.72;;;23.76;100.00
18850;BME280;4989;48.772;9.154;2022-07-29T17:06:54;97840.47;;;23.76;100.00
18850;BME280;4989;48.772;9.154;2022-07-29T17:11:57;97840.94;;;23.81;100.00
18850;BME280;4989;48.772;9.154;2022-07-29T17:17:01;97845.72;;;23.86;100.00
18850;BME280;4989;48.772;9.154;2022-07-29T17:22:05;97848.69;;;23.93;100.00
18850;BME280;4989;48.772;9.154;2022-07-29T17:27:19;97858.25;;;23.98;100.00
18850;BME280;4989;48.772;9.154;2022-07-29T17:32:22;97853.41;;;24.04;100.00
18850;BME280;4989;48.772;9.154;2022-07-29T17:37:25;97863.22;;;24.05;100.00
18850;BME280;4989;48.772;9.154;2022-07-29T17:42:27;97867.44;;;24.17;100.00
18850;BME280;4989;48.772;9.154;2022-07-29T17:47:30;97859.34;;;24.19;100.00
18850;BME280;4989;48.772;9.154;2022-07-29T17:52:33;97864.63;;;24.23;98.52
18850;BME280;4989;48.772;9.154;2022-07-29T17:57:36;97857.28;;;24.26;98.92
18850;BME280;4989;48.772;9.154;2022-07-29T18:02:39;97868.84;;;24.30;98.10
18850;BME280;4989;48.772;9.154;2022-07-29T18:07:41;97868.84;;;24.30;98.57
18850;BME280;4989;48.772;9.154;2022-07-29T18:12:44;97877.13;;;24.35;97.49
18850;BME280;4989;48.772;9.154;2022-07-29T18:17:46;97880.69;;;24.36;96.03
18850;BME280;4989;48.772;9.154;2022-07-29T18:22:59;97869.34;;;24.34;96.21
18850;BME280;4989;48.772;9.154;2022-07-29T18:28:03;97870.38;;;24.31;96.47
18850;BME280;4989;48.772;9.154;2022-07-29T18:33:06;97881.00;;;24.27;95.41
18850;BME280;4989;48.772;9.154;2022-07-29T18:38:23;97873.00;;;24.17;94.37
18850;BME280;4989;48.772;9.154;2022-07-29T18:43:26;97880.56;;;24.17;92.67
18850;BME280;4989;48.772;9.154;2022-07-29T18:48:28;97877.03;;;24.16;89.56
18850;BME280;4989;48.772;9.154;2022-07-29T18:53:32;97874.84;;;24.09;85.85
18850;BME280;4989;48.772;9.154;2022-07-29T18:58:38;97876.09;;;24.08;83.21
18850;BME280;4989;48.772;9.154;2022-07-29T19:03:40;97885.44;;;24.05;78.39
18850;BME280;4989;48.772;9.154;2022-07-29T19:08:43;97893.78;;;24.05;74.83
18850;BME280;4989;48.772;9.154;2022-07-29T19:13:45;97902.19;;;24.30;84.30
18850;BME280;4989;48.772;9.154;2022-07-29T19:18:48;97909.56;;;24.27;76.35
18850;BME280;4989;48.772;9.154;2022-07-29T19:23:50;97916.97;;;24.49;81.21
18850;BME280;4989;48.772;9.154;2022-07-29T19:29:09;97913.97;;;24.72;80.94
18850;BME280;4989;48.772;9.154;2022-07-29T19:34:12;97927.31;;;24.54;82.67
18850;BME280;4989;48.772;9.154;2022-07-29T19:39:15;97932.28;;;24.61;80.27
18850;BME280;4989;48.772;9.154;2022-07-29T19:44:17;97932.41;;;24.75;76.76
18850;BME280;4989;48.772;9.154;2022-07-29T19:49:20;97932.84;;;24.54;70.30
18850;BME280;4989;48.772;9.154;2022-07-29T19:54:23;97940.78;;;24.39;65.83
18850;BME280;4989;48.772;9.154;2022-07-29T19:59:25;97938.13;;;24.22;64.42
18850;BME280;4989;48.772;9.154;2022-07-29T20:04:30;97936.47;;;24.02;63.00
18850;BME280;4989;48.772;9.154;2022-07-29T20:09:34;97931.63;;;24.08;70.94
18850;BME280;4989;48.772;9.154;2022-07-29T20:14:37;97932.25;;;24.31;67.09
18850;BME280;4989;48.772;9.154;2022-07-29T20:19:40;97939.84;;;24.66;82.53
18850;BME280;4989;48.772;9.154;2022-07-29T20:24:44;97944.03;;;25.03;83.02
18850;BME280;4989;48.772;9.154;2022-07-29T20:29:47;97954.63;;;25.05;77.61
18850;BME280;4989;48.772;9.154;2022-07-29T20:34:50;97952.81;;;24.83;76.67
18850;BME280;4989;48.772;9.154;2022-07-29T20:39:53;97938.16;;;24.16;67.18
18850;BME280;4989;48.772;9.154;2022-07-29T20:44:55;97936.00;;;23.40;70.42
18850;BME280;4989;48.772;9.154;2022-07-29T20:49:59;97938.53;;;23.43;71.99
18850;BME280;4989;48.772;9.154;2022-07-29T20:55:01;97935.13;;;23.79;69.88
18850;BME280;4989;48.772;9.154;2022-07-29T21:00:05;97943.97;;;23.71;83.86
18850;BME280;4989;48.772;9.154;2022-07-29T21:05:08;97941.09;;;24.30;81.18
18850;BME280;4989;48.772;9.154;2022-07-29T21:10:11;97947.47;;;24.60;82.70
18850;BME280;4989;48.772;9.154;2022-07-29T21:15:15;97962.78;;;24.37;80.34
18850;BME280;4989;48.772;9.154;2022-07-29T21:20:21;97964.47;;;23.51;69.12
18850;BME280;4989;48.772;9.154;2022-07-29T21:25:25;97963.88;;;22.61;73.44
18850;BME280;4989;48.772;9.154;2022-07-29T21:30:27;97966.75;;;23.42;83.76
18850;BME280;4989;48.772;9.154;2022-07-29T21:35:30;97960.94;;;24.09;84.14
18850;BME280;4989;48.772;9.154;2022-07-29T21:40:53;97972.28;;;23.53;69.02
18850;BME280;4989;48.772;9.154;2022-07-29T21:45:56;97964.09;;;22.80;73.38
18850;BME280;4989;48.772;9.154;2022-07-29T21:50:59;97970.41;;;22.47;75.95
18850;BME280;4989;48.772;9.154;2022-07-29T21:56:02;97963.59;;;22.70;73.66
18850;BME280;4989;48.772;9.154;2022-07-29T22:01:07;97957.19;;;21.96;76.80
18850;BME280;4989;48.772;9.154;2022-07-29T22:06:09;97970.31;;;22.02;80.43
18850;BME280;4989;48.772;9.154;2022-07-29T22:11:21;97970.16;;;22.56;78.32
18850;BME280;4989;48.772;9.154;2022-07-29T22:16:23;97981.50;;;23.03;76.07
18850;BME280;4989;48.772;9.154;2022-07-29T22:21:27;97969.34;;;23.17;80.99
18850;BME280;4989;48.772;9.154;2022-07-29T22:26:29;97964.31;;;23.21;79.00
18850;BME280;4989;48.772;9.154;2022-07-29T22:31:32;97974.56;;;23.54;77.99
18850;BME280;4989;48.772;9.154;2022-07-29T22:36:35;97977.84;;;23.47;85.00
18850;BME280;4989;48.772;9.154;2022-07-29T22:41:37;97981.38;;;23.48;82.53
18850;BME280;4989;48.772;9.154;2022-07-29T22:46:40;97979.47;;;22.98;80.27
18850;BME280;4989;48.772;9.154;2022-07-29T22:51:42;97985.69;;;23.38;83.04
18850;BME280;4989;48.772;9.154;2022-07-29T22:56:45;97969.41;;;23.81;82.66
18850;BME280;4989;48.772;9.154;2022-07-29T23:01:48;97981.63;;;24.08;82.42
18850;BME280;4989;48.772;9.154;2022-07-29T23:06:50;97974.84;;;24.04;77.99
18850;BME280;4989;48.772;9.154;2022-07-29T23:17:31;97979.75;;;23.00;65.85
18850;BME280;4989;48.772;9.154;2022-07-29T23:22:37;97978.72;;;22.52;73.36
18850;BME280;4989;48.772;9.154;2022-07-29T23:27:40;97971.16;;;23.09;80.72
18850;BME280;4989;48.772;9.154;2022-07-29T23:32:43;97973.75;;;23.60;78.69
18850;BME280;4989;48.772;9.154;2022-07-29T23:37:45;97965.09;;;23.86;79.32
18850;BME280;4989;48.772;9.154;2022-07-29T23:42:48;97969.59;;;24.00;79.72
18850;BME280;4989;48.772;9.154;2022-07-29T23:47:50;97982.53;;;24.28;79.11
18850;BME280;4989;48.772;9.154;2022-07-29T23:52:53;98001.50;;;24.23;76.06
18850;BME280;4989;48.772;9.154;2022-07-29T23:57:55;98003.78;;;24.19;75.78
